Kenneth Carl — WDF8246 — position and weather

sailwx.info

Track history (hours):
 
Tides and Currents Weather Stations Pressure Air Temp Water Temp Dewpoint Dewpoint Depression Visibility Wind Speed Wind Dir Waves Ship Positions

Kenneth Carl

Owner: So. Cal. Ship Services, Inc., San Pedro, CA. More information available from US FCC via Universal Licensing System and Coast Guard Vessel Documentation Center.

Last reported at 2016-Jul-23 22:33 UTC. Time now 2016-Jul-23 23:12 UTC.
Position N 33°44' W 118°16'.

Length 31 m; draft 3 m.

Type: Ship. MMSI: 367492920.

Date/timePositionNaut miles runAvg speedWind from/ knotsBaromVisibWave heightAir tempDewpointWater temp
2016-Jul-23 22:33N 33°44' W 118°16'0 0.0
2016-Jul-23 21:31N 33°44' W 118°16'0 0.0
2016-Jul-23 20:32N 33°44' W 118°16'0 0.0
2016-Jul-23 19:33N 33°44' W 118°16'0 0.0
2016-Jul-23 18:34N 33°44' W 118°16'0 0.0
2016-Jul-23 17:33N 33°44' W 118°16'0 0.0
2016-Jul-23 16:33N 33°44' W 118°16'0 0.0
2016-Jul-23 15:33N 33°44' W 118°16'0 0.0
2016-Jul-23 14:33N 33°44' W 118°16'0 0.0
2016-Jul-23 13:34N 33°44' W 118°16'0 0.0
2016-Jul-23 12:27N 33°44' W 118°16'0 0.0
2016-Jul-23 11:32N 33°44' W 118°16'0 0.0
2016-Jul-23 10:33N 33°44' W 118°16'0 0.0
2016-Jul-23 09:33N 33°44' W 118°16'0 0.0
2016-Jul-23 08:31N 33°44' W 118°16'0 0.0
2016-Jul-23 07:08N 33°44' W 118°16'0 0.0
2016-Jul-23 06:33N 33°44' W 118°16'0 0.0
2016-Jul-23 04:33N 33°44' W 118°16'0 0.0
2016-Jul-23 03:33N 33°44' W 118°16'0 0.0
2016-Jul-23 02:33N 33°44' W 118°16'0 0.0
2016-Jul-23 01:33N 33°44' W 118°16'0 0.0
2016-Jul-23 00:34N 33°44' W 118°16'2 1.5
2016-Jul-22 23:33N 33°43' W 118°15'10 9.6
2016-Jul-22 22:33N 33°35' W 118°08'1 0.5
2016-Jul-22 21:34N 33°35' W 118°08'0 0.0
2016-Jul-22 20:34N 33°35' W 118°08'0 0.0
2016-Jul-22 19:33N 33°35' W 118°08'1 1.2
2016-Jul-22 18:34N 33°34' W 118°07'0 0.0
2016-Jul-22 17:33N 33°34' W 118°07'9 9.0
2016-Jul-22 16:33N 33°41' W 118°13'4 3.7
2016-Jul-22 15:33N 33°44' W 118°16'0 0.1
2016-Jul-22 14:33N 33°44' W 118°16'0 0.4
2016-Jul-22 13:34N 33°44' W 118°16'0 0.0
2016-Jul-22 12:33N 33°44' W 118°16'0 0.0
2016-Jul-22 11:33N 33°44' W 118°16'0 0.0
2016-Jul-22 10:33N 33°44' W 118°16'0 0.0
2016-Jul-22 09:33N 33°44' W 118°16'0 0.0
2016-Jul-22 08:33N 33°44' W 118°16'0 0.0
2016-Jul-22 07:34N 33°44' W 118°16'0 0.0
2016-Jul-22 05:33N 33°44' W 118°16'0 0.0
2016-Jul-22 04:32N 33°44' W 118°16'0 0.0
2016-Jul-22 03:33N 33°44' W 118°16'0 0.0
2016-Jul-22 02:29N 33°44' W 118°16'0 0.0
2016-Jul-22 01:30N 33°44' W 118°16'0 0.0
2016-Jul-22 00:33N 33°44' W 118°16'0 0.0
2016-Jul-21 23:33N 33°44' W 118°16'0 0.0
2016-Jul-21 22:28N 33°44' W 118°16'0 0.0
2016-Jul-21 21:34N 33°44' W 118°16'0 0.0
2016-Jul-21 20:33N 33°44' W 118°16'0 0.0
2016-Jul-21 19:33N 33°44' W 118°16'0 0.0
2016-Jul-21 18:33N 33°44' W 118°16'0 0.0
2016-Jul-21 17:33N 33°44' W 118°16'0 0.0
2016-Jul-21 16:33N 33°44' W 118°16'0 0.0
2016-Jul-21 15:33N 33°44' W 118°16'0 0.0
2016-Jul-21 14:33N 33°44' W 118°16'0 0.0
2016-Jul-21 13:34N 33°44' W 118°16'0 0.0
2016-Jul-21 12:33N 33°44' W 118°16'0 0.0
2016-Jul-21 11:33N 33°44' W 118°16'0 0.0
2016-Jul-21 10:34N 33°44' W 118°16'0 0.0
2016-Jul-21 09:31N 33°44' W 118°16'0 0.0
2016-Jul-21 08:33N 33°44' W 118°16'0 0.0
2016-Jul-21 07:33N 33°44' W 118°16'0 0.0
2016-Jul-21 06:34N 33°44' W 118°16'0 0.0
2016-Jul-21 05:33N 33°44' W 118°16'0 0.0
2016-Jul-21 04:33N 33°44' W 118°16'0 0.0
2016-Jul-21 03:33N 33°44' W 118°16'0 0.0
2016-Jul-21 02:32N 33°44' W 118°16'0 0.0
2016-Jul-21 01:34N 33°44' W 118°16'0 0.0
2016-Jul-21 00:34N 33°44' W 118°16'0 0.0
2016-Jul-20 23:33N 33°44' W 118°16'0 0.0
2016-Jul-20 22:33N 33°44' W 118°16'0 0.0
2016-Jul-20 21:33N 33°44' W 118°16'0 0.5
2016-Jul-20 20:33N 33°44' W 118°16'0 0.5
2016-Jul-20 19:29N 33°44' W 118°16'0 0.0
2016-Jul-20 18:33N 33°44' W 118°16'0 0.0
2016-Jul-20 17:33N 33°44' W 118°16'0 0.0
2016-Jul-20 16:34N 33°44' W 118°16'0 0.0
2016-Jul-20 15:33N 33°44' W 118°16'0 0.0
2016-Jul-20 14:33N 33°44' W 118°16'0 0.0
2016-Jul-20 13:33N 33°44' W 118°16'0 0.0
2016-Jul-20 12:34N 33°44' W 118°16'0 0.0
2016-Jul-20 11:33N 33°44' W 118°16'0 0.0
2016-Jul-20 10:33N 33°44' W 118°16'0 0.0
2016-Jul-20 09:33N 33°44' W 118°16'0 0.0
2016-Jul-20 08:33N 33°44' W 118°16'0 0.0
2016-Jul-20 07:34N 33°44' W 118°16'0 0.0
2016-Jul-20 06:33N 33°44' W 118°16'0 0.0
2016-Jul-20 05:33N 33°44' W 118°16'0 0.0
2016-Jul-20 04:33N 33°44' W 118°16'0 0.0
2016-Jul-20 03:33N 33°44' W 118°16'0 0.0
2016-Jul-20 02:34N 33°44' W 118°16'0 0.0
2016-Jul-20 01:34N 33°44' W 118°16'0 0.0
2016-Jul-20 00:34N 33°44' W 118°16'0 0.0
2016-Jul-19 23:33N 33°44' W 118°16'0 0.0
2016-Jul-19 22:33N 33°44' W 118°16'0 0.0
2016-Jul-19 21:34N 33°44' W 118°16'0 0.0
2016-Jul-19 20:34N 33°44' W 118°16'0 0.0
2016-Jul-19 19:34N 33°44' W 118°16'0 0.0
2016-Jul-19 18:33N 33°44' W 118°16'0 0.0
2016-Jul-19 17:33N 33°44' W 118°16'0 0.0
2016-Jul-19 16:33N 33°44' W 118°16'0 0.0
2016-Jul-19 15:31N 33°44' W 118°16'0 0.0
2016-Jul-19 14:24N 33°44' W 118°16'0 0.0
2016-Jul-19 13:19N 33°44' W 118°16'0 0.0
2016-Jul-19 12:34N 33°44' W 118°16'0 0.0
2016-Jul-19 11:34N 33°44' W 118°16'0 0.0
2016-Jul-19 10:33N 33°44' W 118°16'0 0.0
2016-Jul-19 09:33N 33°44' W 118°16'0 0.0
2016-Jul-19 08:33N 33°44' W 118°16'0 0.0
2016-Jul-19 07:33N 33°44' W 118°16'0 0.0
2016-Jul-19 04:33N 33°44' W 118°16'0 0.0
2016-Jul-19 03:33N 33°44' W 118°16'0 0.0
2016-Jul-19 02:33N 33°44' W 118°16'0 0.0
2016-Jul-19 01:33N 33°44' W 118°16'0 0.0
2016-Jul-19 00:34N 33°44' W 118°16'4 3.9
2016-Jul-18 23:34N 33°41' W 118°13'9 8.9
2016-Jul-18 22:34N 33°34' W 118°07'1 1.0
2016-Jul-18 21:33N 33°35' W 118°07'0 0.3
2016-Jul-18 20:33N 33°35' W 118°08'0 0.0
2016-Jul-18 19:33N 33°35' W 118°08'0 0.0
2016-Jul-18 18:33N 33°35' W 118°08'0 0.0
2016-Jul-18 17:28N 33°35' W 118°08'7 5.9
2016-Jul-18 16:16N 33°40' W 118°13'4 2.5
2016-Jul-18 14:32N 33°44' W 118°16'0 0.4
2016-Jul-18 13:33N 33°44' W 118°16'0 0.0
2016-Jul-18 12:23N 33°44' W 118°16'0 0.0
2016-Jul-18 11:33N 33°44' W 118°16'0 0.0
2016-Jul-18 10:31N 33°44' W 118°16'0 0.0
2016-Jul-18 09:33N 33°44' W 118°16'0 0.0
2016-Jul-18 08:34N 33°44' W 118°16'0 0.0
2016-Jul-18 07:33N 33°44' W 118°16'0 0.0
2016-Jul-18 06:33N 33°44' W 118°16'0 0.0
2016-Jul-18 05:32N 33°44' W 118°16'0 0.0
2016-Jul-18 04:33N 33°44' W 118°16'0 0.0
2016-Jul-18 03:30N 33°44' W 118°16'0 0.0
2016-Jul-18 02:33N 33°44' W 118°16'0 0.0
2016-Jul-18 01:33N 33°44' W 118°16'0 0.0
2016-Jul-18 00:07N 33°44' W 118°16'0 0.0
2016-Jul-17 23:25N 33°44' W 118°16'0 0.0
2016-Jul-17 22:33N 33°44' W 118°16'0 0.0
2016-Jul-17 21:33N 33°44' W 118°16'0 0.0
2016-Jul-17 20:18N 33°44' W 118°16'0 0.0
2016-Jul-17 19:33N 33°44' W 118°16'0 0.0
2016-Jul-17 18:33N 33°44' W 118°16'0 0.0
2016-Jul-17 17:30N 33°44' W 118°16'0 0.0
2016-Jul-17 16:31N 33°44' W 118°16'0 0.0
2016-Jul-17 15:23N 33°44' W 118°16'0 0.0
2016-Jul-17 14:23N 33°44' W 118°16'0 0.0
2016-Jul-17 13:32N 33°44' W 118°16'0 0.0
2016-Jul-17 12:32N 33°44' W 118°16'0 0.0
2016-Jul-17 11:30N 33°44' W 118°16'0 0.0
2016-Jul-17 10:34N 33°44' W 118°16'0 0.0
2016-Jul-17 09:30N 33°44' W 118°16'0 0.0
2016-Jul-17 08:21N 33°44' W 118°16'0 0.0
2016-Jul-17 07:05N 33°44' W 118°16'0 0.0
2016-Jul-17 06:31N 33°44' W 118°16'0 0.0
2016-Jul-17 04:24N 33°44' W 118°16'0 0.0
2016-Jul-17 03:33N 33°44' W 118°16'0 0.0
2016-Jul-17 02:22N 33°44' W 118°16'0 0.0
2016-Jul-17 01:33N 33°44' W 118°16'0 0.0
2016-Jul-17 00:34N 33°44' W 118°16'0 0.0
2016-Jul-16 23:33N 33°44' W 118°16'0 0.0
2016-Jul-16 22:32N 33°44' W 118°16'0 0.0
2016-Jul-16 21:31N 33°44' W 118°16'0 0.0
2016-Jul-16 20:11N 33°44' W 118°16'0 0.0
2016-Jul-16 19:18N 33°44' W 118°16'0 0.0
2016-Jul-16 18:32N 33°44' W 118°16'0 0.0
2016-Jul-16 17:31N 33°44' W 118°16'0 0.0
2016-Jul-16 16:33N 33°44' W 118°16'0 0.0
2016-Jul-16 15:31N 33°44' W 118°16'0 0.0
2016-Jul-16 14:32N 33°44' W 118°16'0 0.0
2016-Jul-16 13:25N 33°44' W 118°16'0 0.0
2016-Jul-16 12:33N 33°44' W 118°16'0 0.0
2016-Jul-16 11:31N 33°44' W 118°16'0 0.0
2016-Jul-16 10:29N 33°44' W 118°16'0 0.0
2016-Jul-16 09:28N 33°44' W 118°16'0 0.0
2016-Jul-16 08:32N 33°44' W 118°16'0 0.0
2016-Jul-16 07:34N 33°44' W 118°16'0 0.0
2016-Jul-16 06:19N 33°44' W 118°16'0 0.0
2016-Jul-16 04:32N 33°44' W 118°16'0 0.0
2016-Jul-16 03:33N 33°44' W 118°16'0 0.0
2016-Jul-16 02:33N 33°44' W 118°16'0 0.0
2016-Jul-16 01:34N 33°44' W 118°16'0 0.0
2016-Jul-16 00:33N 33°44' W 118°16'3 2.4
2016-Jul-15 23:30N 33°42' W 118°14'9 9.7
2016-Jul-15 22:33N 33°35' W 118°08'0 0.1
2016-Jul-15 21:33N 33°35' W 118°08'0 0.0
2016-Jul-15 20:33N 33°35' W 118°08'0 0.0
2016-Jul-15 19:32N 33°35' W 118°08'0 0.0
2016-Jul-15 18:33N 33°35' W 118°08'1 1.3
2016-Jul-15 17:32N 33°34' W 118°07'8 7.5
2016-Jul-15 16:31N 33°40' W 118°12'5 2.6
2016-Jul-15 14:32N 33°44' W 118°16'0 0.1
2016-Jul-15 13:18N 33°44' W 118°16'0 0.0
2016-Jul-15 12:24N 33°44' W 118°16'0 0.0
2016-Jul-15 11:24N 33°44' W 118°16'0 0.0
2016-Jul-15 10:18N 33°44' W 118°16'0 0.0
2016-Jul-15 09:06N 33°44' W 118°16'0 0.0
2016-Jul-15 05:27N 33°44' W 118°16'0 0.0
2016-Jul-15 04:30N 33°44' W 118°16'0 0.0
2016-Jul-15 03:33N 33°44' W 118°16'0 0.0
2016-Jul-15 02:33N 33°44' W 118°16'0 0.0
2016-Jul-15 01:30N 33°44' W 118°16'0 0.0
2016-Jul-15 00:24N 33°44' W 118°16'0 0.0
2016-Jul-14 23:24N 33°44' W 118°16'0 0.0
2016-Jul-14 22:27N 33°44' W 118°16'0 0.0
2016-Jul-14 21:21N 33°44' W 118°16'0 0.0
2016-Jul-14 20:24N 33°44' W 118°16'0 0.0
2016-Jul-14 07:18N 33°44' W 118°16'0 0.0
2016-Jul-14 06:24N 33°44' W 118°16'0 0.0
2016-Jul-14 05:33N 33°44' W 118°16'0 0.0
2016-Jul-14 02:24N 33°44' W 118°16'0 0.0
2016-Jul-14 01:24N 33°44' W 118°16'0 0.0
2016-Jul-14 00:30N 33°44' W 118°16'0 0.0
2016-Jul-13 23:33N 33°44' W 118°16'  
Track history (hours):
 
Tides and Currents Weather Stations Pressure Air Temp Water Temp Dewpoint Dewpoint Depression Visibility Wind Speed Wind Dir Waves Ship Positions

Kenneth Carl

Owner: So. Cal. Ship Services, Inc., San Pedro, CA. More information available from US FCC via Universal Licensing System and Coast Guard Vessel Documentation Center.

Last reported at 2016-Jul-23 22:33 UTC. Time now 2016-Jul-23 23:12 UTC.
Position N 33°44' W 118°16'.

Length 31 m; draft 3 m.

Type: Ship. MMSI: 367492920.

Date/timePositionNaut miles runAvg speedWind from/ knotsBaromVisibWave heightAir tempDewpointWater temp
2016-Jul-23 22:33N 33°44' W 118°16'0 0.0
2016-Jul-23 21:31N 33°44' W 118°16'0 0.0
2016-Jul-23 20:32N 33°44' W 118°16'0 0.0
2016-Jul-23 19:33N 33°44' W 118°16'0 0.0
2016-Jul-23 18:34N 33°44' W 118°16'0 0.0
2016-Jul-23 17:33N 33°44' W 118°16'0 0.0
2016-Jul-23 16:33N 33°44' W 118°16'0 0.0
2016-Jul-23 15:33N 33°44' W 118°16'0 0.0
2016-Jul-23 14:33N 33°44' W 118°16'0 0.0
2016-Jul-23 13:34N 33°44' W 118°16'0 0.0
2016-Jul-23 12:27N 33°44' W 118°16'0 0.0
2016-Jul-23 11:32N 33°44' W 118°16'0 0.0
2016-Jul-23 10:33N 33°44' W 118°16'0 0.0
2016-Jul-23 09:33N 33°44' W 118°16'0 0.0
2016-Jul-23 08:31N 33°44' W 118°16'0 0.0
2016-Jul-23 07:08N 33°44' W 118°16'0 0.0
2016-Jul-23 06:33N 33°44' W 118°16'0 0.0
2016-Jul-23 04:33N 33°44' W 118°16'0 0.0
2016-Jul-23 03:33N 33°44' W 118°16'0 0.0
2016-Jul-23 02:33N 33°44' W 118°16'0 0.0
2016-Jul-23 01:33N 33°44' W 118°16'0 0.0
2016-Jul-23 00:34N 33°44' W 118°16'2 1.5
2016-Jul-22 23:33N 33°43' W 118°15'10 9.6
2016-Jul-22 22:33N 33°35' W 118°08'1 0.5
2016-Jul-22 21:34N 33°35' W 118°08'0 0.0
2016-Jul-22 20:34N 33°35' W 118°08'0 0.0
2016-Jul-22 19:33N 33°35' W 118°08'1 1.2
2016-Jul-22 18:34N 33°34' W 118°07'0 0.0
2016-Jul-22 17:33N 33°34' W 118°07'9 9.0
2016-Jul-22 16:33N 33°41' W 118°13'4 3.7
2016-Jul-22 15:33N 33°44' W 118°16'0 0.1
2016-Jul-22 14:33N 33°44' W 118°16'0 0.4
2016-Jul-22 13:34N 33°44' W 118°16'0 0.0
2016-Jul-22 12:33N 33°44' W 118°16'0 0.0
2016-Jul-22 11:33N 33°44' W 118°16'0 0.0
2016-Jul-22 10:33N 33°44' W 118°16'0 0.0
2016-Jul-22 09:33N 33°44' W 118°16'0 0.0
2016-Jul-22 08:33N 33°44' W 118°16'0 0.0
2016-Jul-22 07:34N 33°44' W 118°16'0 0.0
2016-Jul-22 05:33N 33°44' W 118°16'0 0.0
2016-Jul-22 04:32N 33°44' W 118°16'0 0.0
2016-Jul-22 03:33N 33°44' W 118°16'0 0.0
2016-Jul-22 02:29N 33°44' W 118°16'0 0.0
2016-Jul-22 01:30N 33°44' W 118°16'0 0.0
2016-Jul-22 00:33N 33°44' W 118°16'0 0.0
2016-Jul-21 23:33N 33°44' W 118°16'0 0.0
2016-Jul-21 22:28N 33°44' W 118°16'0 0.0
2016-Jul-21 21:34N 33°44' W 118°16'0 0.0
2016-Jul-21 20:33N 33°44' W 118°16'0 0.0
2016-Jul-21 19:33N 33°44' W 118°16'0 0.0
2016-Jul-21 18:33N 33°44' W 118°16'0 0.0
2016-Jul-21 17:33N 33°44' W 118°16'0 0.0
2016-Jul-21 16:33N 33°44' W 118°16'0 0.0
2016-Jul-21 15:33N 33°44' W 118°16'0 0.0
2016-Jul-21 14:33N 33°44' W 118°16'0 0.0
2016-Jul-21 13:34N 33°44' W 118°16'0 0.0
2016-Jul-21 12:33N 33°44' W 118°16'0 0.0
2016-Jul-21 11:33N 33°44' W 118°16'0 0.0
2016-Jul-21 10:34N 33°44' W 118°16'0 0.0
2016-Jul-21 09:31N 33°44' W 118°16'0 0.0
2016-Jul-21 08:33N 33°44' W 118°16'0 0.0
2016-Jul-21 07:33N 33°44' W 118°16'0 0.0
2016-Jul-21 06:34N 33°44' W 118°16'0 0.0
2016-Jul-21 05:33N 33°44' W 118°16'0 0.0
2016-Jul-21 04:33N 33°44' W 118°16'0 0.0
2016-Jul-21 03:33N 33°44' W 118°16'0 0.0
2016-Jul-21 02:32N 33°44' W 118°16'0 0.0
2016-Jul-21 01:34N 33°44' W 118°16'0 0.0
2016-Jul-21 00:34N 33°44' W 118°16'0 0.0
2016-Jul-20 23:33N 33°44' W 118°16'0 0.0
2016-Jul-20 22:33N 33°44' W 118°16'0 0.0
2016-Jul-20 21:33N 33°44' W 118°16'0 0.5
2016-Jul-20 20:33N 33°44' W 118°16'0 0.5
2016-Jul-20 19:29N 33°44' W 118°16'0 0.0
2016-Jul-20 18:33N 33°44' W 118°16'0 0.0
2016-Jul-20 17:33N 33°44' W 118°16'0 0.0
2016-Jul-20 16:34N 33°44' W 118°16'0 0.0
2016-Jul-20 15:33N 33°44' W 118°16'0 0.0
2016-Jul-20 14:33N 33°44' W 118°16'0 0.0
2016-Jul-20 13:33N 33°44' W 118°16'0 0.0
2016-Jul-20 12:34N 33°44' W 118°16'0 0.0
2016-Jul-20 11:33N 33°44' W 118°16'0 0.0
2016-Jul-20 10:33N 33°44' W 118°16'0 0.0
2016-Jul-20 09:33N 33°44' W 118°16'0 0.0
2016-Jul-20 08:33N 33°44' W 118°16'0 0.0
2016-Jul-20 07:34N 33°44' W 118°16'0 0.0
2016-Jul-20 06:33N 33°44' W 118°16'0 0.0
2016-Jul-20 05:33N 33°44' W 118°16'0 0.0
2016-Jul-20 04:33N 33°44' W 118°16'0 0.0
2016-Jul-20 03:33N 33°44' W 118°16'0 0.0
2016-Jul-20 02:34N 33°44' W 118°16'0 0.0
2016-Jul-20 01:34N 33°44' W 118°16'0 0.0
2016-Jul-20 00:34N 33°44' W 118°16'0 0.0
2016-Jul-19 23:33N 33°44' W 118°16'0 0.0
2016-Jul-19 22:33N 33°44' W 118°16'0 0.0
2016-Jul-19 21:34N 33°44' W 118°16'0 0.0
2016-Jul-19 20:34N 33°44' W 118°16'0 0.0
2016-Jul-19 19:34N 33°44' W 118°16'0 0.0
2016-Jul-19 18:33N 33°44' W 118°16'0 0.0
2016-Jul-19 17:33N 33°44' W 118°16'0 0.0
2016-Jul-19 16:33N 33°44' W 118°16'0 0.0
2016-Jul-19 15:31N 33°44' W 118°16'0 0.0
2016-Jul-19 14:24N 33°44' W 118°16'0 0.0
2016-Jul-19 13:19N 33°44' W 118°16'0 0.0
2016-Jul-19 12:34N 33°44' W 118°16'0 0.0
2016-Jul-19 11:34N 33°44' W 118°16'0 0.0
2016-Jul-19 10:33N 33°44' W 118°16'0 0.0
2016-Jul-19 09:33N 33°44' W 118°16'0 0.0
2016-Jul-19 08:33N 33°44' W 118°16'0 0.0
2016-Jul-19 07:33N 33°44' W 118°16'0 0.0
2016-Jul-19 04:33N 33°44' W 118°16'0 0.0
2016-Jul-19 03:33N 33°44' W 118°16'0 0.0
2016-Jul-19 02:33N 33°44' W 118°16'0 0.0
2016-Jul-19 01:33N 33°44' W 118°16'0 0.0
2016-Jul-19 00:34N 33°44' W 118°16'4 3.9
2016-Jul-18 23:34N 33°41' W 118°13'9 8.9
2016-Jul-18 22:34N 33°34' W 118°07'1 1.0
2016-Jul-18 21:33N 33°35' W 118°07'0 0.3
2016-Jul-18 20:33N 33°35' W 118°08'0 0.0
2016-Jul-18 19:33N 33°35' W 118°08'0 0.0
2016-Jul-18 18:33N 33°35' W 118°08'0 0.0
2016-Jul-18 17:28N 33°35' W 118°08'7 5.9
2016-Jul-18 16:16N 33°40' W 118°13'4 2.5
2016-Jul-18 14:32N 33°44' W 118°16'0 0.4
2016-Jul-18 13:33N 33°44' W 118°16'0 0.0
2016-Jul-18 12:23N 33°44' W 118°16'0 0.0
2016-Jul-18 11:33N 33°44' W 118°16'0 0.0
2016-Jul-18 10:31N 33°44' W 118°16'0 0.0
2016-Jul-18 09:33N 33°44' W 118°16'0 0.0
2016-Jul-18 08:34N 33°44' W 118°16'0 0.0
2016-Jul-18 07:33N 33°44' W 118°16'0 0.0
2016-Jul-18 06:33N 33°44' W 118°16'0 0.0
2016-Jul-18 05:32N 33°44' W 118°16'0 0.0
2016-Jul-18 04:33N 33°44' W 118°16'0 0.0
2016-Jul-18 03:30N 33°44' W 118°16'0 0.0
2016-Jul-18 02:33N 33°44' W 118°16'0 0.0
2016-Jul-18 01:33N 33°44' W 118°16'0 0.0
2016-Jul-18 00:07N 33°44' W 118°16'0 0.0
2016-Jul-17 23:25N 33°44' W 118°16'0 0.0
2016-Jul-17 22:33N 33°44' W 118°16'0 0.0
2016-Jul-17 21:33N 33°44' W 118°16'0 0.0
2016-Jul-17 20:18N 33°44' W 118°16'0 0.0
2016-Jul-17 19:33N 33°44' W 118°16'0 0.0
2016-Jul-17 18:33N 33°44' W 118°16'0 0.0
2016-Jul-17 17:30N 33°44' W 118°16'0 0.0
2016-Jul-17 16:31N 33°44' W 118°16'0 0.0
2016-Jul-17 15:23N 33°44' W 118°16'0 0.0
2016-Jul-17 14:23N 33°44' W 118°16'0 0.0
2016-Jul-17 13:32N 33°44' W 118°16'0 0.0
2016-Jul-17 12:32N 33°44' W 118°16'0 0.0
2016-Jul-17 11:30N 33°44' W 118°16'0 0.0
2016-Jul-17 10:34N 33°44' W 118°16'0 0.0
2016-Jul-17 09:30N 33°44' W 118°16'0 0.0
2016-Jul-17 08:21N 33°44' W 118°16'0 0.0
2016-Jul-17 07:05N 33°44' W 118°16'0 0.0
2016-Jul-17 06:31N 33°44' W 118°16'0 0.0
2016-Jul-17 04:24N 33°44' W 118°16'0 0.0
2016-Jul-17 03:33N 33°44' W 118°16'0 0.0
2016-Jul-17 02:22N 33°44' W 118°16'0 0.0
2016-Jul-17 01:33N 33°44' W 118°16'0 0.0
2016-Jul-17 00:34N 33°44' W 118°16'0 0.0
2016-Jul-16 23:33N 33°44' W 118°16'0 0.0
2016-Jul-16 22:32N 33°44' W 118°16'0 0.0
2016-Jul-16 21:31N 33°44' W 118°16'0 0.0
2016-Jul-16 20:11N 33°44' W 118°16'0 0.0
2016-Jul-16 19:18N 33°44' W 118°16'0 0.0
2016-Jul-16 18:32N 33°44' W 118°16'0 0.0
2016-Jul-16 17:31N 33°44' W 118°16'0 0.0
2016-Jul-16 16:33N 33°44' W 118°16'0 0.0
2016-Jul-16 15:31N 33°44' W 118°16'0 0.0
2016-Jul-16 14:32N 33°44' W 118°16'0 0.0
2016-Jul-16 13:25N 33°44' W 118°16'0 0.0
2016-Jul-16 12:33N 33°44' W 118°16'0 0.0
2016-Jul-16 11:31N 33°44' W 118°16'0 0.0
2016-Jul-16 10:29N 33°44' W 118°16'0 0.0
2016-Jul-16 09:28N 33°44' W 118°16'0 0.0
2016-Jul-16 08:32N 33°44' W 118°16'0 0.0
2016-Jul-16 07:34N 33°44' W 118°16'0 0.0
2016-Jul-16 06:19N 33°44' W 118°16'0 0.0
2016-Jul-16 04:32N 33°44' W 118°16'0 0.0
2016-Jul-16 03:33N 33°44' W 118°16'0 0.0
2016-Jul-16 02:33N 33°44' W 118°16'0 0.0
2016-Jul-16 01:34N 33°44' W 118°16'0 0.0
2016-Jul-16 00:33N 33°44' W 118°16'3 2.4
2016-Jul-15 23:30N 33°42' W 118°14'9 9.7
2016-Jul-15 22:33N 33°35' W 118°08'0 0.1
2016-Jul-15 21:33N 33°35' W 118°08'0 0.0
2016-Jul-15 20:33N 33°35' W 118°08'0 0.0
2016-Jul-15 19:32N 33°35' W 118°08'0 0.0
2016-Jul-15 18:33N 33°35' W 118°08'1 1.3
2016-Jul-15 17:32N 33°34' W 118°07'8 7.5
2016-Jul-15 16:31N 33°40' W 118°12'5 2.6
2016-Jul-15 14:32N 33°44' W 118°16'0 0.1
2016-Jul-15 13:18N 33°44' W 118°16'0 0.0
2016-Jul-15 12:24N 33°44' W 118°16'0 0.0
2016-Jul-15 11:24N 33°44' W 118°16'0 0.0
2016-Jul-15 10:18N 33°44' W 118°16'0 0.0
2016-Jul-15 09:06N 33°44' W 118°16'0 0.0
2016-Jul-15 05:27N 33°44' W 118°16'0 0.0
2016-Jul-15 04:30N 33°44' W 118°16'0 0.0
2016-Jul-15 03:33N 33°44' W 118°16'0 0.0
2016-Jul-15 02:33N 33°44' W 118°16'0 0.0
2016-Jul-15 01:30N 33°44' W 118°16'0 0.0
2016-Jul-15 00:24N 33°44' W 118°16'0 0.0
2016-Jul-14 23:24N 33°44' W 118°16'0 0.0
2016-Jul-14 22:27N 33°44' W 118°16'0 0.0
2016-Jul-14 21:21N 33°44' W 118°16'0 0.0
2016-Jul-14 20:24N 33°44' W 118°16'0 0.0
2016-Jul-14 07:18N 33°44' W 118°16'0 0.0
2016-Jul-14 06:24N 33°44' W 118°16'0 0.0
2016-Jul-14 05:33N 33°44' W 118°16'0 0.0
2016-Jul-14 02:24N 33°44' W 118°16'0 0.0
2016-Jul-14 01:24N 33°44' W 118°16'0 0.0
2016-Jul-14 00:30N 33°44' W 118°16'0 0.0
2016-Jul-13 23:33N 33°44' W 118°16'  

Dump ship's entire track history